Time;durP1;ratioP1;P1;durP2;ratioP2;P2;SDS_P1;SDS_P2;PMS_P1;PMS_P2;Temp;Humidity;BMP_temperature;BMP_pressure;BME280_temperature;BME280_humidity;BME280_pressure;Samples;Min_cycle;Max_cycle;Signal;HPM_P1;HPM_P2
2022/12/12 00:00:49;;;;;;;20.33;12.70;;;;;;;-145.23;100.00;58621.06;5008184;28;20599;-54
2022/12/12 00:03:16;;;;;;;21.47;12.87;;;;;;;-145.23;100.00;58621.06;5028231;28;20241;-53
2022/12/12 00:05:44;;;;;;;19.70;14.23;;;;;;;-145.23;100.00;58621.06;5016830;28;20253;-54
2022/12/12 00:08:10;;;;;;;19.00;13.70;;;;;;;-145.23;100.00;58621.06;5030485;28;20239;-54
2022/12/12 00:10:37;;;;;;;19.80;14.10;;;;;;;-145.23;100.00;58621.06;5017487;28;20246;-53
2022/12/12 00:13:04;;;;;;;21.33;14.10;;;;;;;-145.23;100.00;58621.06;5013894;28;20231;-54
2022/12/12 00:15:30;;;;;;;21.93;12.53;;;;;;;-145.23;100.00;58621.06;5010084;28;20320;-54
2022/12/12 00:17:57;;;;;;;21.47;14.47;;;;;;;-145.23;100.00;58621.06;5004051;28;20315;-54
2022/12/12 00:20:24;;;;;;;22.97;13.27;;;;;;;-145.23;100.00;58621.06;5008913;28;20269;-53
2022/12/12 00:22:52;;;;;;;21.97;14.00;;;;;;;-145.23;100.00;58621.06;5008946;28;20366;-54
2022/12/12 00:25:18;;;;;;;22.33;13.20;;;;;;;-145.23;100.00;58621.06;5010591;28;20873;-53
2022/12/12 00:27:45;;;;;;;20.53;12.83;;;;;;;-145.23;100.00;58621.06;5008909;28;20246;-53
2022/12/12 00:30:12;;;;;;;21.30;14.03;;;;;;;-145.23;100.00;58621.06;5006321;28;20315;-54
2022/12/12 00:32:40;;;;;;;20.93;14.07;;;;;;;-145.23;100.00;58621.06;5007323;28;20236;-54
2022/12/12 00:35:07;;;;;;;29.47;13.53;;;;;;;-145.23;100.00;58621.06;5007565;28;20765;-54
2022/12/12 00:37:34;;;;;;;21.70;14.97;;;;;;;-145.23;100.00;58621.06;5007905;28;20290;-54
2022/12/12 00:40:02;;;;;;;18.73;13.03;;;;;;;-145.23;100.00;58621.06;5008442;28;20323;-53
2022/12/12 00:42:29;;;;;;;20.93;13.30;;;;;;;-145.23;100.00;58621.06;5006186;28;20346;-53
2022/12/12 00:44:55;;;;;;;23.70;14.80;;;;;;;-145.23;100.00;58621.06;5012049;28;20236;-54
2022/12/12 00:47:22;;;;;;;24.10;14.77;;;;;;;-145.23;100.00;58621.06;5007273;28;20350;-53
2022/12/12 00:49:49;;;;;;;21.47;14.13;;;;;;;-145.23;100.00;58621.06;5008458;28;20244;-54
2022/12/12 00:52:15;;;;;;;22.30;14.23;;;;;;;-145.23;100.00;58621.06;5007380;28;20330;-53
2022/12/12 00:54:42;;;;;;;21.77;14.07;;;;;;;-145.23;100.00;58621.06;5007367;28;20294;-52
2022/12/12 00:57:10;;;;;;;22.67;14.23;;;;;;;-145.23;100.00;58621.06;5005895;28;20620;-54
2022/12/12 00:59:36;;;;;;;22.00;13.87;;;;;;;-145.23;100.00;58621.06;5032904;28;20238;-54
2022/12/12 01:02:03;;;;;;;22.63;13.70;;;;;;;-145.23;100.00;58621.06;5039811;28;20235;-53
2022/12/12 01:04:30;;;;;;;27.60;15.30;;;;;;;-145.23;100.00;58621.06;5032189;28;20243;-53
2022/12/12 01:06:56;;;;;;;21.50;13.70;;;;;;;-145.23;100.00;58621.06;5021877;28;20230;-53
2022/12/12 01:09:23;;;;;;;22.40;14.70;;;;;;;-145.23;100.00;58621.06;5024220;28;20234;-54
2022/12/12 01:11:49;;;;;;;23.40;14.20;;;;;;;-145.23;100.00;58621.06;5032790;28;20337;-54
2022/12/12 01:14:17;;;;;;;26.47;15.17;;;;;;;-145.23;100.00;58621.06;5023629;28;20322;-53
2022/12/12 01:16:44;;;;;;;24.37;14.70;;;;;;;-145.23;100.00;58621.06;5009086;28;20298;-54
2022/12/12 01:19:11;;;;;;;26.37;14.93;;;;;;;-145.23;100.00;58621.06;5004985;28;20243;-53
2022/12/12 01:21:37;;;;;;;25.43;14.43;;;;;;;-145.23;100.00;58621.06;5004595;28;20259;-53
2022/12/12 01:24:04;;;;;;;24.17;14.03;;;;;;;-145.23;100.00;58621.06;5006524;28;20370;-53
2022/12/12 01:26:31;;;;;;;24.47;13.83;;;;;;;-145.23;100.00;58621.06;5007640;28;20236;-54
2022/12/12 01:28:57;;;;;;;22.60;13.60;;;;;;;-145.23;100.00;58621.06;5002457;28;20949;-54
2022/12/12 01:31:25;;;;;;;22.13;13.83;;;;;;;-145.23;100.00;58621.06;5004040;28;20266;-54
2022/12/12 01:33:52;;;;;;;22.80;14.03;;;;;;;-145.23;100.00;58621.06;5006665;28;20338;-54
2022/12/12 01:36:21;;;;;;;26.00;14.63;;;;;;;-145.23;100.00;58621.06;5002163;28;20718;-55
2022/12/12 01:38:49;;;;;;;25.33;15.57;;;;;;;-145.23;100.00;58621.06;5001168;28;20319;-53
2022/12/12 01:41:17;;;;;;;25.23;15.17;;;;;;;-145.23;100.00;58621.06;5000479;28;20531;-54
2022/12/12 01:43:44;;;;;;;23.97;14.93;;;;;;;-145.23;100.00;58621.06;5019168;28;20235;-54
2022/12/12 01:46:40;;;;;;;22.60;15.07;;;;;;;-145.23;100.00;58621.06;5025436;28;20777;-53
2022/12/12 01:49:19;;;;;;;22.47;13.07;;;;;;;-145.23;100.00;58621.06;4989918;28;20223;-54
2022/12/12 01:51:46;;;;;;;26.33;13.77;;;;;;;-145.23;100.00;58621.06;5002808;28;20259;-52
2022/12/12 01:54:15;;;;;;;21.63;12.93;;;;;;;-145.23;100.00;58621.06;5001561;28;20717;-54
2022/12/12 01:56:43;;;;;;;20.63;12.73;;;;;;;-145.23;100.00;58621.06;5021625;28;20281;-54
2022/12/12 01:59:12;;;;;;;24.63;14.10;;;;;;;-145.23;100.00;58621.06;5003357;28;20238;-53
2022/12/12 02:01:40;;;;;;;23.13;13.17;;;;;;;-145.23;100.00;58621.06;5007926;28;20331;-53
2022/12/12 02:04:07;;;;;;;36.57;14.07;;;;;;;-145.23;100.00;58621.06;5004666;28;20242;-53
2022/12/12 02:06:34;;;;;;;23.90;13.63;;;;;;;-145.23;100.00;58621.06;5003604;28;20231;-53
2022/12/12 02:09:04;;;;;;;21.93;13.50;;;;;;;-145.23;100.00;58621.06;5000330;28;20318;-54
2022/12/12 02:11:32;;;;;;;21.27;13.57;;;;;;;-145.23;100.00;58621.06;5003780;28;20235;-54
2022/12/12 02:13:59;;;;;;;23.73;13.40;;;;;;;-145.23;100.00;58621.06;5002869;28;20725;-53
2022/12/12 02:16:35;;;;;;;21.33;13.47;;;;;;;-145.23;100.00;58621.06;5005441;28;20224;-53
2022/12/12 02:19:17;;;;;;;25.27;13.67;;;;;;;-145.23;100.00;58621.06;4998486;28;20819;-53
2022/12/12 02:21:46;;;;;;;24.60;13.10;;;;;;;-145.23;100.00;58621.06;5022047;28;20938;-53
2022/12/12 02:24:39;;;;;;;21.90;14.17;;;;;;;-145.23;100.00;58621.06;5020371;28;20231;-53
2022/12/12 02:27:48;;;;;;;24.63;14.17;;;;;;;-145.23;100.00;58621.06;5000090;28;20228;-54
2022/12/12 02:30:21;;;;;;;22.70;13.63;;;;;;;-145.23;100.00;58621.06;5010072;28;20269;-54
2022/12/12 02:33:06;;;;;;;21.07;13.57;;;;;;;-145.23;100.00;58621.06;5015780;28;20242;-53
2022/12/12 02:35:39;;;;;;;20.87;12.20;;;;;;;-145.23;100.00;58621.06;5012665;28;20235;-52
2022/12/12 02:38:13;;;;;;;19.80;12.90;;;;;;;-145.23;100.00;58621.06;5004340;28;20246;-53
2022/12/12 02:40:45;;;;;;;26.17;15.67;;;;;;;-145.23;100.00;58621.06;5005250;28;20323;-54
2022/12/12 02:43:15;;;;;;;24.83;14.53;;;;;;;-145.23;100.00;58621.06;5002620;28;20247;-54
2022/12/12 02:45:47;;;;;;;26.03;14.67;;;;;;;-145.23;100.00;58621.06;5003675;28;20322;-53
2022/12/12 02:48:17;;;;;;;24.83;15.03;;;;;;;-145.23;100.00;58621.06;5012796;28;20262;-53
2022/12/12 02:50:44;;;;;;;23.90;13.67;;;;;;;-145.23;100.00;58621.06;5004097;28;20778;-53
2022/12/12 02:53:11;;;;;;;19.03;13.03;;;;;;;-145.23;100.00;58621.06;5006149;28;20680;-53
2022/12/12 02:55:38;;;;;;;26.47;14.30;;;;;;;-145.23;100.00;58621.06;5004004;28;20320;-53
2022/12/12 02:58:05;;;;;;;22.33;14.37;;;;;;;-145.23;100.00;58621.06;5000150;28;20329;-57
2022/12/12 03:00:34;;;;;;;24.77;13.87;;;;;;;-145.23;100.00;58621.06;5005526;28;21160;-54
2022/12/12 03:09:07;;;;;;;20.27;13.10;;;;;;;-145.23;100.00;58621.06;5004970;28;20361;-55
2022/12/12 03:11:43;;;;;;;24.63;14.33;;;;;;;-145.23;100.00;58621.06;5003956;28;20263;-53
2022/12/12 03:14:13;;;;;;;24.93;15.40;;;;;;;-145.23;100.00;58621.06;5000442;28;20235;-55
2022/12/12 03:16:44;;;;;;;24.80;15.23;;;;;;;-145.23;100.00;58621.06;5002957;28;20869;-54
2022/12/12 03:19:16;;;;;;;26.63;15.33;;;;;;;-145.23;100.00;58621.06;5002392;28;20229;-53
2022/12/12 03:21:47;;;;;;;21.57;13.90;;;;;;;-145.23;100.00;58621.06;5000455;28;20235;-54
2022/12/12 03:24:21;;;;;;;23.00;14.17;;;;;;;-145.23;100.00;58621.06;5001755;28;20235;-53
2022/12/12 03:26:52;;;;;;;24.73;13.03;;;;;;;-145.23;100.00;58621.06;5002369;28;20254;-53
2022/12/12 03:29:21;;;;;;;22.20;13.57;;;;;;;-145.23;100.00;58621.06;5018248;28;20340;-56
2022/12/12 03:31:51;;;;;;;25.03;13.97;;;;;;;-145.23;100.00;58621.06;5021860;28;20235;-53
2022/12/12 03:34:21;;;;;;;27.33;14.80;;;;;;;-145.23;100.00;58621.06;5010027;28;20254;-53
2022/12/12 03:36:50;;;;;;;24.13;14.43;;;;;;;-145.23;100.00;58621.06;5007000;28;20256;-53
2022/12/12 03:39:21;;;;;;;26.87;15.07;;;;;;;-145.23;100.00;58621.06;5000141;28;20225;-53
2022/12/12 03:41:52;;;;;;;25.53;13.93;;;;;;;-145.23;100.00;58621.06;5016765;28;20231;-54
2022/12/12 03:44:20;;;;;;;25.87;14.87;;;;;;;-145.23;100.00;58621.06;5025711;28;20229;-53
2022/12/12 03:46:49;;;;;;;21.60;13.57;;;;;;;-145.23;100.00;58621.06;5021014;28;20321;-53
2022/12/12 03:49:21;;;;;;;24.37;14.27;;;;;;;-145.23;100.00;58621.06;5005081;28;20266;-55
2022/12/12 03:51:50;;;;;;;22.33;14.10;;;;;;;-145.23;100.00;58621.06;5014169;28;20444;-53
2022/12/12 03:54:21;;;;;;;25.80;13.13;;;;;;;-145.23;100.00;58621.06;5027957;28;20352;-53
2022/12/12 03:56:51;;;;;;;26.50;14.97;;;;;;;-145.23;100.00;58621.06;5001990;28;20712;-53
2022/12/12 03:59:20;;;;;;;21.90;13.77;;;;;;;-145.23;100.00;58621.06;5015704;28;20412;-54
2022/12/12 04:01:50;;;;;;;25.20;14.90;;;;;;;-145.23;100.00;58621.06;5004847;28;20234;-54
2022/12/12 04:04:22;;;;;;;24.37;13.93;;;;;;;-145.23;100.00;58621.06;5009393;28;20654;-52
2022/12/12 04:06:54;;;;;;;21.30;12.83;;;;;;;-145.23;100.00;58621.06;5009163;28;20865;-54
2022/12/12 04:15:04;;;;;;;24.03;14.37;;;;;;;-145.23;100.00;58621.06;5004970;28;20319;-53
2022/12/12 04:17:37;;;;;;;23.30;13.03;;;;;;;-145.23;100.00;58621.06;5001125;28;20225;-53
2022/12/12 04:23:19;;;;;;;20.73;12.57;;;;;;;-145.23;100.00;58621.06;5018741;28;20236;-53
2022/12/12 04:28:41;;;;;;;19.27;12.57;;;;;;;-145.23;100.00;58621.06;4993624;28;20247;-53
2022/12/12 04:31:09;;;;;;;19.73;12.30;;;;;;;-145.23;100.00;58621.06;5004768;28;20929;-53
2022/12/12 04:33:42;;;;;;;20.30;12.17;;;;;;;-145.23;100.00;58621.06;4998975;28;20234;-53
2022/12/12 04:36:11;;;;;;;22.43;13.77;;;;;;;-145.23;100.00;58621.06;5000710;28;20257;-53
2022/12/12 04:38:39;;;;;;;21.53;11.97;;;;;;;-145.23;100.00;58621.06;4997125;28;20255;-53
2022/12/12 04:41:06;;;;;;;18.67;11.07;;;;;;;-145.23;100.00;58621.06;5002936;28;21044;-53
2022/12/12 04:43:37;;;;;;;16.73;11.40;;;;;;;-145.23;100.00;58621.06;4995036;28;20247;-53
2022/12/12 04:46:07;;;;;;;17.60;11.33;;;;;;;-145.23;100.00;58621.06;5013808;28;20240;-53
2022/12/12 04:48:41;;;;;;;16.73;10.97;;;;;;;-145.23;100.00;58621.06;4999293;28;20315;-53
2022/12/12 04:51:10;;;;;;;19.80;10.97;;;;;;;-145.23;100.00;58621.06;4998535;28;20992;-53
2022/12/12 04:53:39;;;;;;;18.57;10.70;;;;;;;-145.23;100.00;58621.06;4992934;28;20737;-54
2022/12/12 04:56:10;;;;;;;15.87;12.13;;;;;;;-145.23;100.00;58621.06;5003565;28;20331;-53
2022/12/12 04:58:38;;;;;;;16.80;10.37;;;;;;;-145.23;100.00;58621.06;5003548;28;20782;-53
2022/12/12 05:01:09;;;;;;;16.80;11.07;;;;;;;-145.23;100.00;58621.06;5005163;28;20237;-53
2022/12/12 05:03:41;;;;;;;14.20;9.83;;;;;;;-145.23;100.00;58621.06;4999568;28;20705;-53
2022/12/12 05:06:13;;;;;;;17.17;10.57;;;;;;;-145.23;100.00;58621.06;4997803;28;20244;-53
2022/12/12 05:08:42;;;;;;;16.17;10.57;;;;;;;-145.23;100.00;58621.06;5000239;28;20626;-53
2022/12/12 05:11:10;;;;;;;16.77;10.10;;;;;;;-145.23;100.00;58621.06;5003518;28;20623;-54
2022/12/12 05:13:38;;;;;;;20.43;10.00;;;;;;;-145.23;100.00;58621.06;5006428;28;20259;-54
2022/12/12 05:16:13;;;;;;;13.73;9.37;;;;;;;-145.23;100.00;58621.06;5002128;28;20315;-53
2022/12/12 05:18:40;;;;;;;9.80;8.40;;;;;;;-145.23;100.00;58621.06;5000922;28;20276;-53
2022/12/12 05:21:07;;;;;;;13.90;8.87;;;;;;;-145.23;100.00;58621.06;5002928;28;20231;-54
2022/12/12 05:23:35;;;;;;;10.10;7.30;;;;;;;-145.23;100.00;58621.06;4998547;28;20303;-53
2022/12/12 05:26:07;;;;;;;8.93;7.67;;;;;;;-145.23;100.00;58621.06;4998384;28;20268;-53
2022/12/12 05:28:34;;;;;;;11.63;7.50;;;;;;;-145.23;100.00;58621.06;5001092;28;20586;-53
2022/12/12 05:31:01;;;;;;;9.27;7.43;;;;;;;-145.23;100.00;58621.06;5001638;28;20252;-53
2022/12/12 05:33:28;;;;;;;9.23;7.60;;;;;;;-145.23;100.00;58621.06;4999186;28;20233;-54
2022/12/12 05:35:55;;;;;;;8.03;5.87;;;;;;;-145.23;100.00;58621.06;4998287;28;20231;-53
2022/12/12 05:38:22;;;;;;;8.87;6.77;;;;;;;-145.23;100.00;58621.06;5001887;28;20236;-52
2022/12/12 05:40:51;;;;;;;8.80;6.90;;;;;;;-145.23;100.00;58621.06;5005014;28;20241;-53
2022/12/12 05:43:18;;;;;;;7.83;6.33;;;;;;;-145.23;100.00;58621.06;5002904;28;20238;-53
2022/12/12 05:45:45;;;;;;;10.23;6.80;;;;;;;-145.23;100.00;58621.06;5003271;28;20869;-55
2022/12/12 05:48:12;;;;;;;6.60;5.30;;;;;;;-145.23;100.00;58621.06;4997837;28;20259;-53
2022/12/12 05:50:39;;;;;;;7.47;6.27;;;;;;;-145.23;100.00;58621.06;5000557;28;20886;-52
2022/12/12 05:53:06;;;;;;;5.53;5.00;;;;;;;-145.23;100.00;58621.06;4998049;28;20237;-53
2022/12/12 05:55:32;;;;;;;7.20;5.23;;;;;;;-145.23;100.00;58621.06;5001969;28;20229;-54
2022/12/12 05:58:01;;;;;;;8.00;6.10;;;;;;;-145.23;100.00;58621.06;5003010;28;20316;-53
2022/12/12 06:00:28;;;;;;;6.67;5.97;;;;;;;-145.23;100.00;58621.06;5002746;28;20233;-52
2022/12/12 06:02:55;;;;;;;5.87;5.20;;;;;;;-145.23;100.00;58621.06;5004435;28;20244;-52
2022/12/12 06:05:22;;;;;;;7.60;5.90;;;;;;;-145.23;100.00;58621.06;5001572;28;20235;-53
2022/12/12 06:07:49;;;;;;;8.07;6.03;;;;;;;-145.23;100.00;58621.06;5002889;28;20721;-53
2022/12/12 06:10:16;;;;;;;6.63;5.40;;;;;;;-145.23;100.00;58621.06;4999151;28;20643;-53
2022/12/12 06:12:42;;;;;;;7.00;5.43;;;;;;;-145.23;100.00;58621.06;4999938;28;20242;-53
2022/12/12 06:15:11;;;;;;;6.13;4.93;;;;;;;-145.23;100.00;58621.06;5004082;28;20264;-53
2022/12/12 06:17:38;;;;;;;6.50;5.57;;;;;;;-145.23;100.00;58621.06;4999584;28;20598;-54
2022/12/12 06:20:06;;;;;;;5.90;5.30;;;;;;;-145.23;100.00;58621.06;4999911;28;20236;-53
2022/12/12 06:22:34;;;;;;;6.77;5.53;;;;;;;-145.23;100.00;58621.06;5004064;28;20740;-53
2022/12/12 06:25:01;;;;;;;7.13;5.67;;;;;;;-145.23;100.00;58621.06;4998666;28;20276;-54
2022/12/12 06:27:28;;;;;;;5.10;4.60;;;;;;;-145.23;100.00;58621.06;4997764;28;20935;-53
2022/12/12 06:29:55;;;;;;;7.87;5.73;;;;;;;-145.23;100.00;58621.06;4997554;28;20319;-53
2022/12/12 06:32:24;;;;;;;5.63;4.70;;;;;;;-145.23;100.00;58621.06;5001458;28;20237;-54
2022/12/12 06:34:51;;;;;;;6.73;5.13;;;;;;;-145.23;100.00;58621.06;4999446;28;20272;-53
2022/12/12 06:37:18;;;;;;;6.27;5.57;;;;;;;-145.23;100.00;58621.06;5017676;28;20227;-53
2022/12/12 06:39:45;;;;;;;5.97;5.03;;;;;;;-145.23;100.00;58621.06;5001783;28;20378;-53
2022/12/12 06:42:12;;;;;;;7.13;5.43;;;;;;;-145.23;100.00;58621.06;5000389;28;20675;-53
2022/12/12 06:44:39;;;;;;;6.63;5.70;;;;;;;-145.23;100.00;58621.06;5002909;28;20259;-53
2022/12/12 06:47:06;;;;;;;7.00;5.67;;;;;;;-145.23;100.00;58621.06;4993206;28;20237;-53
2022/12/12 06:49:34;;;;;;;5.60;5.00;;;;;;;-145.23;100.00;58621.06;5002084;28;20231;-53
2022/12/12 06:52:01;;;;;;;11.23;6.20;;;;;;;-145.23;100.00;58621.06;4997997;28;20265;-53
2022/12/12 06:54:28;;;;;;;5.63;5.03;;;;;;;-145.23;100.00;58621.06;5002932;28;20298;-52
2022/12/12 06:56:55;;;;;;;5.93;5.10;;;;;;;-145.23;100.00;58621.06;5001998;28;20235;-53
2022/12/12 06:59:22;;;;;;;7.20;5.87;;;;;;;-145.23;100.00;58621.06;5001852;28;20296;-53
2022/12/12 07:01:49;;;;;;;6.30;5.50;;;;;;;-145.23;100.00;58621.06;5004407;28;20236;-53
2022/12/12 07:04:16;;;;;;;8.07;5.77;;;;;;;-145.23;100.00;58621.06;5013257;28;20278;-53
2022/12/12 07:06:45;;;;;;;5.70;5.00;;;;;;;-145.23;100.00;58621.06;5020525;28;20235;-53
2022/12/12 07:09:12;;;;;;;7.13;5.87;;;;;;;-145.23;100.00;58621.06;5016251;28;20241;-53
2022/12/12 07:11:40;;;;;;;7.87;5.90;;;;;;;-145.23;100.00;58621.06;5017669;28;20816;-53
2022/12/12 07:14:07;;;;;;;7.20;5.90;;;;;;;-145.23;100.00;58621.06;5023024;28;20227;-53
2022/12/12 07:16:34;;;;;;;5.73;5.13;;;;;;;-145.23;100.00;58621.06;5022029;28;20255;-54
2022/12/12 07:19:01;;;;;;;5.73;5.13;;;;;;;-145.23;100.00;58621.06;5021195;28;20723;-54
2022/12/12 07:21:28;;;;;;;6.87;5.60;;;;;;;-145.23;100.00;58621.06;5023521;28;20263;-53
2022/12/12 07:23:57;;;;;;;5.83;5.23;;;;;;;-145.23;100.00;58621.06;5022086;28;20315;-53
2022/12/12 07:26:25;;;;;;;9.00;6.13;;;;;;;-145.23;100.00;58621.06;5022342;28;20238;-53
2022/12/12 07:28:52;;;;;;;5.20;4.70;;;;;;;-145.23;100.00;58621.06;5015114;28;20342;-53
2022/12/12 07:31:20;;;;;;;5.63;5.13;;;;;;;-145.23;100.00;58621.06;5023701;28;20919;-54
2022/12/12 07:33:47;;;;;;;6.23;5.53;;;;;;;-145.23;100.00;58621.06;5004912;28;20237;-52
2022/12/12 07:36:16;;;;;;;9.50;6.03;;;;;;;-145.23;100.00;58621.06;5004142;28;20236;-54
2022/12/12 07:38:43;;;;;;;7.10;5.27;;;;;;;-145.23;100.00;58621.06;5003136;28;20782;-54
2022/12/12 07:41:13;;;;;;;5.23;4.73;;;;;;;-145.23;100.00;58621.06;5005942;28;20629;-54
2022/12/12 07:43:41;;;;;;;7.33;5.13;;;;;;;-145.23;100.00;58621.06;5004118;28;20241;-53
2022/12/12 07:46:09;;;;;;;5.63;5.10;;;;;;;-145.23;100.00;58621.06;4999074;28;20610;-54
2022/12/12 07:48:36;;;;;;;5.43;4.77;;;;;;;-145.23;100.00;58621.06;4999666;28;20233;-53
2022/12/12 07:51:03;;;;;;;8.60;4.97;;;;;;;-145.23;100.00;58621.06;5008477;28;20294;-53
2022/12/12 07:53:31;;;;;;;6.03;5.00;;;;;;;-145.23;100.00;58621.06;5007258;28;20228;-54
2022/12/12 07:55:58;;;;;;;5.60;4.97;;;;;;;-145.23;100.00;58621.06;5004559;28;20240;-54
2022/12/12 07:58:26;;;;;;;9.00;5.33;;;;;;;-145.23;100.00;58621.06;5003574;28;20930;-54
2022/12/12 08:00:53;;;;;;;7.93;5.13;;;;;;;-145.23;100.00;58621.06;5005102;28;20264;-53
2022/12/12 08:03:20;;;;;;;10.63;5.70;;;;;;;-145.23;100.00;58621.06;5000725;28;20718;-54
2022/12/12 08:05:47;;;;;;;6.07;5.47;;;;;;;-145.23;100.00;58621.06;5008476;28;20240;-52
2022/12/12 08:08:13;;;;;;;6.50;4.53;;;;;;;-145.23;100.00;58621.06;5008943;28;20239;-54
2022/12/12 08:10:41;;;;;;;7.27;5.20;;;;;;;-145.23;100.00;58621.06;5004636;28;20231;-53
2022/12/12 08:13:08;;;;;;;6.00;5.07;;;;;;;-145.23;100.00;58621.06;5004594;28;20239;-53
2022/12/12 08:15:36;;;;;;;5.30;4.67;;;;;;;-145.23;100.00;58621.06;5005409;28;20657;-53
2022/12/12 08:18:03;;;;;;;7.63;5.57;;;;;;;-145.23;100.00;58621.06;5004160;28;20793;-53
2022/12/12 08:20:30;;;;;;;6.30;5.50;;;;;;;-145.23;100.00;58621.06;5003757;28;20233;-53
2022/12/12 08:22:57;;;;;;;7.10;5.90;;;;;;;-145.23;100.00;58621.06;5007677;28;20291;-53
2022/12/12 08:25:23;;;;;;;6.53;5.10;;;;;;;-145.23;100.00;58621.06;5003781;28;20821;-53
2022/12/12 08:27:51;;;;;;;5.67;4.60;;;;;;;-145.23;100.00;58621.06;5002225;28;20287;-54
2022/12/12 08:30:18;;;;;;;5.50;5.00;;;;;;;-145.23;100.00;58621.06;5007821;28;20706;-54
2022/12/12 08:32:46;;;;;;;5.50;5.00;;;;;;;-145.23;100.00;58621.06;5021524;28;20795;-54
2022/12/12 08:35:13;;;;;;;5.40;4.73;;;;;;;-145.23;100.00;58621.06;5002630;28;20236;-53
2022/12/12 08:37:40;;;;;;;6.17;5.23;;;;;;;-145.23;100.00;58621.06;5003653;28;20243;-53
2022/12/12 08:40:08;;;;;;;5.37;4.33;;;;;;;-145.23;100.00;58621.06;5004315;28;20224;-53
2022/12/12 08:42:35;;;;;;;5.37;4.83;;;;;;;-145.23;100.00;58621.06;5001124;28;20231;-53
2022/12/12 08:45:02;;;;;;;5.77;4.90;;;;;;;-145.23;100.00;58621.06;5004416;28;20289;-52
2022/12/12 08:47:29;;;;;;;5.27;4.77;;;;;;;-145.23;100.00;58621.06;5003624;28;20244;-53
2022/12/12 08:49:57;;;;;;;5.93;5.17;;;;;;;-145.23;100.00;58621.06;5005324;28;20229;-53
2022/12/12 08:52:24;;;;;;;4.97;4.53;;;;;;;-145.23;100.00;58621.06;5003420;28;20248;-53
2022/12/12 08:54:51;;;;;;;5.97;4.73;;;;;;;-145.23;100.00;58621.06;5004653;28;20270;-54
2022/12/12 08:57:18;;;;;;;5.73;4.77;;;;;;;-145.23;100.00;58621.06;5000090;28;20243;-53
2022/12/12 08:59:45;;;;;;;4.70;4.20;;;;;;;-145.23;100.00;58621.06;5002078;28;20232;-54
2022/12/12 09:02:12;;;;;;;4.80;4.27;;;;;;;-145.23;100.00;58621.06;4999940;28;20767;-53
2022/12/12 09:04:39;;;;;;;5.67;5.03;;;;;;;-145.23;100.00;58621.06;4998325;28;20780;-53
2022/12/12 09:07:07;;;;;;;7.60;5.30;;;;;;;-145.23;100.00;58621.06;5001599;28;20237;-54
2022/12/12 09:09:34;;;;;;;6.83;4.53;;;;;;;-145.23;100.00;58621.06;5004225;28;20224;-53
2022/12/12 09:12:01;;;;;;;4.93;4.50;;;;;;;-145.23;100.00;58621.06;5001507;28;20240;-53
2022/12/12 09:14:28;;;;;;;5.60;3.97;;;;;;;-145.23;100.00;58621.06;5005642;28;20791;-51
2022/12/12 09:16:55;;;;;;;6.23;4.40;;;;;;;-145.23;100.00;58621.06;5004771;28;20691;-52
2022/12/12 09:19:22;;;;;;;5.87;4.37;;;;;;;-145.23;100.00;58621.06;5005681;28;20733;-54
2022/12/12 09:21:49;;;;;;;5.43;4.93;;;;;;;-145.23;100.00;58621.06;5004409;28;20324;-53
2022/12/12 09:24:18;;;;;;;5.70;4.57;;;;;;;-145.23;100.00;58621.06;5000183;28;20726;-54
2022/12/12 09:26:45;;;;;;;4.97;4.47;;;;;;;-145.23;100.00;58621.06;5005214;28;20234;-53
2022/12/12 09:29:12;;;;;;;5.47;4.63;;;;;;;-145.23;100.00;58621.06;4998803;28;20244;-53
2022/12/12 09:31:39;;;;;;;4.17;3.77;;;;;;;-145.23;100.00;58621.06;5004221;28;20225;-53
2022/12/12 09:34:06;;;;;;;4.20;3.70;;;;;;;-145.23;100.00;58621.06;4996329;28;20236;-54
2022/12/12 09:36:33;;;;;;;7.07;5.03;;;;;;;-145.23;100.00;58621.06;5002086;28;20240;-52
2022/12/12 09:38:59;;;;;;;5.87;4.40;;;;;;;-145.23;100.00;58621.06;5005192;28;20743;-53
2022/12/12 09:41:29;;;;;;;4.23;3.93;;;;;;;-145.23;100.00;58621.06;5004444;28;20330;-54
2022/12/12 09:43:58;;;;;;;5.10;3.83;;;;;;;-145.23;100.00;58621.06;5001489;28;20297;-53
2022/12/12 09:46:32;;;;;;;5.53;4.40;;;;;;;-145.23;100.00;58621.06;5007116;28;20292;-53
2022/12/12 09:49:04;;;;;;;4.90;3.80;;;;;;;-145.23;100.00;58621.06;5008133;28;20231;-55
2022/12/12 09:51:31;;;;;;;4.87;4.07;;;;;;;-145.23;100.00;58621.06;5002155;28;20349;-52
2022/12/12 09:53:58;;;;;;;4.83;4.20;;;;;;;-145.23;100.00;58621.06;4997237;28;20349;-52
2022/12/12 09:56:29;;;;;;;4.33;3.93;;;;;;;-145.23;100.00;58621.06;5000817;28;20236;-53
2022/12/12 09:59:01;;;;;;;4.23;3.83;;;;;;;-145.23;100.00;58621.06;5000972;28;21023;-53
2022/12/12 10:01:32;;;;;;;6.30;4.67;;;;;;;-145.23;100.00;58621.06;5014421;28;20235;-54
2022/12/12 10:04:06;;;;;;;8.83;4.80;;;;;;;-145.23;100.00;58621.06;5020183;28;20235;-54
2022/12/12 10:06:40;;;;;;;5.70;4.17;;;;;;;-145.23;100.00;58621.06;5021121;28;20286;-53
2022/12/12 10:09:27;;;;;;;4.77;4.17;;;;;;;-145.23;100.00;58621.06;5023348;28;20231;-53
2022/12/12 10:11:55;;;;;;;5.37;4.67;;;;;;;-145.23;100.00;58621.06;5018303;28;20923;-52
2022/12/12 10:14:28;;;;;;;5.17;4.67;;;;;;;-145.23;100.00;58621.06;5022244;28;20250;-53
2022/12/12 10:16:55;;;;;;;5.30;4.27;;;;;;;-145.23;100.00;58621.06;5020310;28;20713;-53
2022/12/12 10:19:25;;;;;;;4.60;4.20;;;;;;;-145.23;100.00;58621.06;5019333;28;20228;-53
2022/12/12 10:21:53;;;;;;;5.70;3.97;;;;;;;-145.23;100.00;58621.06;5020669;28;20244;-54
2022/12/12 10:24:27;;;;;;;6.37;4.23;;;;;;;-145.23;100.00;58621.06;5023274;28;20723;-54
2022/12/12 10:26:57;;;;;;;6.03;4.63;;;;;;;-145.23;100.00;58621.06;5020440;28;20343;-55
2022/12/12 10:29:26;;;;;;;5.33;4.83;;;;;;;-145.23;100.00;58621.06;5022869;28;20320;-54
2022/12/12 10:31:58;;;;;;;7.33;4.40;;;;;;;-145.23;100.00;58621.06;5025048;28;20250;-54
2022/12/12 10:34:33;;;;;;;5.17;4.67;;;;;;;-145.23;100.00;58621.06;5023230;28;20275;-53
2022/12/12 10:37:11;;;;;;;5.20;4.30;;;;;;;-145.23;100.00;58621.06;5023111;28;20231;-53
2022/12/12 10:39:46;;;;;;;4.77;4.37;;;;;;;-145.23;100.00;58621.06;5020914;28;20253;-53
2022/12/12 10:42:19;;;;;;;5.13;4.23;;;;;;;-145.23;100.00;58621.06;5021224;28;20292;-53
2022/12/12 10:44:59;;;;;;;4.90;3.93;;;;;;;-145.23;100.00;58621.06;5019640;28;20778;-54
2022/12/12 10:47:26;;;;;;;5.50;4.90;;;;;;;-145.23;100.00;58621.06;5005667;28;20720;-52
2022/12/12 10:49:55;;;;;;;5.93;5.13;;;;;;;-145.23;100.00;58621.06;5003846;28;20664;-53
2022/12/12 10:52:22;;;;;;;5.70;5.03;;;;;;;-145.23;100.00;58621.06;5001777;28;20991;-52
2022/12/12 10:54:52;;;;;;;4.97;4.47;;;;;;;-145.23;100.00;58621.06;5003118;28;20347;-53
2022/12/12 10:57:23;;;;;;;6.67;4.97;;;;;;;-145.23;100.00;58621.06;4997259;28;20248;-53
2022/12/12 10:59:51;;;;;;;5.80;4.90;;;;;;;-145.23;100.00;58621.06;5020413;28;20309;-52
2022/12/12 11:02:26;;;;;;;5.57;4.90;;;;;;;-145.23;100.00;58621.06;5020127;28;20262;-54
2022/12/12 11:04:59;;;;;;;6.03;4.80;;;;;;;-145.23;100.00;58621.06;5007391;28;20225;-52
2022/12/12 11:07:26;;;;;;;9.33;5.30;;;;;;;-145.23;100.00;58621.06;5006532;28;20336;-54
2022/12/12 11:09:54;;;;;;;5.67;4.97;;;;;;;-145.23;100.00;58621.06;5004000;28;20240;-51
2022/12/12 11:12:22;;;;;;;6.57;4.57;;;;;;;-145.23;100.00;58621.06;4995699;28;20235;-53
2022/12/12 11:14:50;;;;;;;6.83;5.07;;;;;;;-145.23;100.00;58621.06;5003373;28;20246;-53
2022/12/12 11:17:22;;;;;;;4.53;4.13;;;;;;;-145.23;100.00;58621.06;5022056;28;20224;-53
2022/12/12 11:19:49;;;;;;;5.57;4.97;;;;;;;-145.23;100.00;58621.06;5011975;28;20747;-52
2022/12/12 11:22:15;;;;;;;6.90;5.03;;;;;;;-145.23;100.00;58621.06;5014752;28;20237;-54
2022/12/12 11:24:44;;;;;;;5.43;4.63;;;;;;;-145.23;100.00;58621.06;5014763;28;20309;-53
2022/12/12 11:27:19;;;;;;;6.07;4.97;;;;;;;-145.23;100.00;58621.06;5008229;28;20233;-52